sensor_id;sensor_type;location;lat;lon;timestamp;temperature;humidity
58405;DHT22;44200;50.732;4.276;2022-07-22T06:09:41;17.00;99.90
58405;DHT22;44200;50.732;4.276;2022-07-22T06:12:07;17.30;99.90
58405;DHT22;44200;50.732;4.276;2022-07-22T06:17:13;17.60;99.90
58405;DHT22;44200;50.732;4.276;2022-07-22T06:20:01;17.70;99.90
58405;DHT22;44200;50.732;4.276;2022-07-22T06:27:37;18.00;99.90
58405;DHT22;44200;50.732;4.276;2022-07-22T06:35:41;18.40;99.90
58405;DHT22;44200;50.732;4.276;2022-07-22T06:38:11;18.60;99.90
58405;DHT22;44200;50.732;4.276;2022-07-22T06:50:54;19.20;99.90
58405;DHT22;44200;50.732;4.276;2022-07-22T06:55:55;19.70;99.90
58405;DHT22;44200;50.732;4.276;2022-07-22T06:58:21;19.90;99.90
58405;DHT22;44200;50.732;4.276;2022-07-22T07:12:18;19.70;99.90
58405;DHT22;44200;50.732;4.276;2022-07-22T07:27:44;20.00;99.90
58405;DHT22;44200;50.732;4.276;2022-07-22T07:40:53;19.20;99.90
58405;DHT22;44200;50.732;4.276;2022-07-22T08:19:14;20.70;99.90
58405;DHT22;44200;50.732;4.276;2022-07-22T09:06:42;23.60;95.90
58405;DHT22;44200;50.732;4.276;2022-07-22T09:19:32;22.90;96.50
58405;DHT22;44200;50.732;4.276;2022-07-22T09:40:17;23.40;97.10
58405;DHT22;44200;50.732;4.276;2022-07-22T09:48:23;24.60;92.90
58405;DHT22;44200;50.732;4.276;2022-07-22T10:21:46;29.60;83.60
58405;DHT22;44200;50.732;4.276;2022-07-22T10:24:14;30.40;82.30
58405;DHT22;44200;50.732;4.276;2022-07-22T10:26:54;30.70;80.90
58405;DHT22;44200;50.732;4.276;2022-07-22T10:29:31;31.40;81.00
58405;DHT22;44200;50.732;4.276;2022-07-22T10:37:37;32.90;74.20
58405;DHT22;44200;50.732;4.276;2022-07-22T10:45:37;32.00;75.70
58405;DHT22;44200;50.732;4.276;2022-07-22T10:48:07;29.30;75.60
58405;DHT22;44200;50.732;4.276;2022-07-22T11:01:07;29.60;80.00
58405;DHT22;44200;50.732;4.276;2022-07-22T11:08:40;29.50;75.30
58405;DHT22;44200;50.732;4.276;2022-07-22T11:11:41;29.60;76.10
58405;DHT22;44200;50.732;4.276;2022-07-22T11:22:09;29.70;79.40
58405;DHT22;44200;50.732;4.276;2022-07-22T11:24:37;29.70;77.10
58405;DHT22;44200;50.732;4.276;2022-07-22T11:27:04;29.90;75.90
58405;DHT22;44200;50.732;4.276;2022-07-22T11:29:50;30.10;77.00
58405;DHT22;44200;50.732;4.276;2022-07-22T11:32:50;29.00;75.00
58405;DHT22;44200;50.732;4.276;2022-07-22T11:35:18;26.70;79.80
58405;DHT22;44200;50.732;4.276;2022-07-22T11:48:10;27.00;84.80
58405;DHT22;44200;50.732;4.276;2022-07-22T11:53:22;26.70;84.00
58405;DHT22;44200;50.732;4.276;2022-07-22T12:07:18;27.10;82.80
58405;DHT22;44200;50.732;4.276;2022-07-22T12:17:45;27.90;81.40
58405;DHT22;44200;50.732;4.276;2022-07-22T12:20:11;27.80;81.90
58405;DHT22;44200;50.732;4.276;2022-07-22T12:22:50;28.00;82.00
58405;DHT22;44200;50.732;4.276;2022-07-22T12:25:24;27.60;81.60
58405;DHT22;44200;50.732;4.276;2022-07-22T12:28:00;27.30;81.70
58405;DHT22;44200;50.732;4.276;2022-07-22T12:30:27;27.20;81.70
58405;DHT22;44200;50.732;4.276;2022-07-22T12:32:52;25.40;85.10
58405;DHT22;44200;50.732;4.276;2022-07-22T12:35:18;25.50;85.60
58405;DHT22;44200;50.732;4.276;2022-07-22T12:37:44;25.80;84.10
58405;DHT22;44200;50.732;4.276;2022-07-22T12:40:17;26.10;83.90
58405;DHT22;44200;50.732;4.276;2022-07-22T12:42:46;26.00;85.70
58405;DHT22;44200;50.732;4.276;2022-07-22T12:45:15;25.70;84.60
58405;DHT22;44200;50.732;4.276;2022-07-22T12:47:53;26.50;83.60
58405;DHT22;44200;50.732;4.276;2022-07-22T12:55:25;28.40;83.00
58405;DHT22;44200;50.732;4.276;2022-07-22T12:57:51;27.90;82.30
58405;DHT22;44200;50.732;4.276;2022-07-22T13:00:23;28.20;82.10
58405;DHT22;44200;50.732;4.276;2022-07-22T13:02:49;27.80;81.80
58405;DHT22;44200;50.732;4.276;2022-07-22T13:05:15;28.20;80.60
58405;DHT22;44200;50.732;4.276;2022-07-22T13:07:42;28.20;81.60
58405;DHT22;44200;50.732;4.276;2022-07-22T13:10:08;28.90;79.80
58405;DHT22;44200;50.732;4.276;2022-07-22T13:12:35;28.80;79.70
58405;DHT22;44200;50.732;4.276;2022-07-22T13:15:00;28.90;78.20
58405;DHT22;44200;50.732;4.276;2022-07-22T13:17:26;28.90;80.90
58405;DHT22;44200;50.732;4.276;2022-07-22T13:19:52;29.00;79.10
58405;DHT22;44200;50.732;4.276;2022-07-22T13:22:18;27.70;81.60
58405;DHT22;44200;50.732;4.276;2022-07-22T13:24:43;27.90;83.10
58405;DHT22;44200;50.732;4.276;2022-07-22T13:27:09;26.50;82.80
58405;DHT22;44200;50.732;4.276;2022-07-22T13:29:34;26.90;81.30
58405;DHT22;44200;50.732;4.276;2022-07-22T13:32:00;27.10;81.30
58405;DHT22;44200;50.732;4.276;2022-07-22T13:34:26;27.30;82.70
58405;DHT22;44200;50.732;4.276;2022-07-22T13:36:52;27.20;82.50
58405;DHT22;44200;50.732;4.276;2022-07-22T13:39:17;27.50;81.70
58405;DHT22;44200;50.732;4.276;2022-07-22T13:41:43;27.40;84.20
58405;DHT22;44200;50.732;4.276;2022-07-22T13:44:09;27.50;81.50
58405;DHT22;44200;50.732;4.276;2022-07-22T13:46:35;27.70;82.00
58405;DHT22;44200;50.732;4.276;2022-07-22T13:49:01;27.70;80.70
58405;DHT22;44200;50.732;4.276;2022-07-22T13:51:27;27.50;83.10
58405;DHT22;44200;50.732;4.276;2022-07-22T13:53:53;27.90;81.30
58405;DHT22;44200;50.732;4.276;2022-07-22T13:56:18;27.50;82.50
58405;DHT22;44200;50.732;4.276;2022-07-22T13:58:44;27.40;82.50
58405;DHT22;44200;50.732;4.276;2022-07-22T14:01:11;27.50;80.70
58405;DHT22;44200;50.732;4.276;2022-07-22T14:03:37;26.80;81.10
58405;DHT22;44200;50.732;4.276;2022-07-22T14:06:04;26.70;83.40
58405;DHT22;44200;50.732;4.276;2022-07-22T14:08:30;26.50;82.40
58405;DHT22;44200;50.732;4.276;2022-07-22T14:10:55;26.40;82.70
58405;DHT22;44200;50.732;4.276;2022-07-22T14:13:24;25.90;84.10
58405;DHT22;44200;50.732;4.276;2022-07-22T14:15:50;25.70;86.10
58405;DHT22;44200;50.732;4.276;2022-07-22T14:18:16;26.00;83.80
58405;DHT22;44200;50.732;4.276;2022-07-22T14:20:41;26.00;84.90
58405;DHT22;44200;50.732;4.276;2022-07-22T14:23:08;26.10;86.20
58405;DHT22;44200;50.732;4.276;2022-07-22T14:25:36;26.00;83.70
58405;DHT22;44200;50.732;4.276;2022-07-22T14:28:03;25.30;84.80
58405;DHT22;44200;50.732;4.276;2022-07-22T14:30:29;25.30;84.90
58405;DHT22;44200;50.732;4.276;2022-07-22T14:32:55;25.00;85.80
58405;DHT22;44200;50.732;4.276;2022-07-22T14:35:21;25.10;86.50
58405;DHT22;44200;50.732;4.276;2022-07-22T14:37:47;25.40;88.40
58405;DHT22;44200;50.732;4.276;2022-07-22T14:40:13;25.60;88.30
58405;DHT22;44200;50.732;4.276;2022-07-22T14:42:38;25.50;86.70
58405;DHT22;44200;50.732;4.276;2022-07-22T14:45:06;25.20;86.00
58405;DHT22;44200;50.732;4.276;2022-07-22T14:47:33;25.30;88.40
58405;DHT22;44200;50.732;4.276;2022-07-22T14:49:59;25.50;86.90
58405;DHT22;44200;50.732;4.276;2022-07-22T14:52:24;25.60;86.50
58405;DHT22;44200;50.732;4.276;2022-07-22T14:54:50;25.20;87.00
58405;DHT22;44200;50.732;4.276;2022-07-22T14:57:16;24.70;88.30
58405;DHT22;44200;50.732;4.276;2022-07-22T14:59:41;24.90;88.00
58405;DHT22;44200;50.732;4.276;2022-07-22T15:02:07;24.90;87.80
58405;DHT22;44200;50.732;4.276;2022-07-22T15:04:33;25.10;88.10
58405;DHT22;44200;50.732;4.276;2022-07-22T15:06:58;25.10;87.50
58405;DHT22;44200;50.732;4.276;2022-07-22T15:09:24;24.90;86.50
58405;DHT22;44200;50.732;4.276;2022-07-22T15:11:50;24.90;87.40
58405;DHT22;44200;50.732;4.276;2022-07-22T15:14:17;24.80;85.90
58405;DHT22;44200;50.732;4.276;2022-07-22T15:16:43;24.70;87.60
58405;DHT22;44200;50.732;4.276;2022-07-22T15:19:09;24.80;87.10
58405;DHT22;44200;50.732;4.276;2022-07-22T15:21:35;24.80;88.50
58405;DHT22;44200;50.732;4.276;2022-07-22T15:24:00;24.90;88.00
58405;DHT22;44200;50.732;4.276;2022-07-22T15:26:26;25.00;89.00
58405;DHT22;44200;50.732;4.276;2022-07-22T15:28:52;25.00;90.20
58405;DHT22;44200;50.732;4.276;2022-07-22T15:31:18;25.00;87.40
58405;DHT22;44200;50.732;4.276;2022-07-22T15:33:44;25.10;88.40
58405;DHT22;44200;50.732;4.276;2022-07-22T15:36:10;24.80;89.00
58405;DHT22;44200;50.732;4.276;2022-07-22T15:38:37;24.40;90.20
58405;DHT22;44200;50.732;4.276;2022-07-22T15:41:06;24.40;89.70
58405;DHT22;44200;50.732;4.276;2022-07-22T15:43:40;24.70;90.40
58405;DHT22;44200;50.732;4.276;2022-07-22T15:46:09;25.00;88.70
58405;DHT22;44200;50.732;4.276;2022-07-22T15:48:35;25.30;88.50
58405;DHT22;44200;50.732;4.276;2022-07-22T15:51:05;25.30;87.00
58405;DHT22;44200;50.732;4.276;2022-07-22T15:53:34;25.40;88.00
58405;DHT22;44200;50.732;4.276;2022-07-22T15:55:59;25.10;88.50
58405;DHT22;44200;50.732;4.276;2022-07-22T15:58:25;24.80;90.10
58405;DHT22;44200;50.732;4.276;2022-07-22T16:01:09;24.90;90.20
58405;DHT22;44200;50.732;4.276;2022-07-22T16:03:35;24.80;89.40
58405;DHT22;44200;50.732;4.276;2022-07-22T16:06:00;24.70;88.80
58405;DHT22;44200;50.732;4.276;2022-07-22T16:08:26;24.50;89.00
58405;DHT22;44200;50.732;4.276;2022-07-22T16:10:52;24.30;89.70
58405;DHT22;44200;50.732;4.276;2022-07-22T16:13:18;24.00;90.80
58405;DHT22;44200;50.732;4.276;2022-07-22T16:15:44;23.80;90.40
58405;DHT22;44200;50.732;4.276;2022-07-22T16:18:10;23.80;91.80
58405;DHT22;44200;50.732;4.276;2022-07-22T16:20:38;24.30;91.10
58405;DHT22;44200;50.732;4.276;2022-07-22T16:23:03;24.50;91.00
58405;DHT22;44200;50.732;4.276;2022-07-22T16:25:29;24.80;91.30
58405;DHT22;44200;50.732;4.276;2022-07-22T16:27:55;24.80;91.50
58405;DHT22;44200;50.732;4.276;2022-07-22T16:30:21;24.50;91.30
58405;DHT22;44200;50.732;4.276;2022-07-22T16:32:47;24.70;90.50
58405;DHT22;44200;50.732;4.276;2022-07-22T16:35:12;24.80;90.20
58405;DHT22;44200;50.732;4.276;2022-07-22T16:37:38;24.90;90.20
58405;DHT22;44200;50.732;4.276;2022-07-22T16:40:05;24.90;90.30
58405;DHT22;44200;50.732;4.276;2022-07-22T16:42:30;24.70;90.70
58405;DHT22;44200;50.732;4.276;2022-07-22T16:44:56;24.70;90.50
58405;DHT22;44200;50.732;4.276;2022-07-22T16:47:22;24.60;90.50
58405;DHT22;44200;50.732;4.276;2022-07-22T16:49:48;24.70;90.90
58405;DHT22;44200;50.732;4.276;2022-07-22T16:52:14;24.60;91.20
58405;DHT22;44200;50.732;4.276;2022-07-22T16:54:39;24.70;90.70
58405;DHT22;44200;50.732;4.276;2022-07-22T16:57:05;24.70;90.80
58405;DHT22;44200;50.732;4.276;2022-07-22T16:59:31;24.10;91.70
58405;DHT22;44200;50.732;4.276;2022-07-22T17:01:56;23.80;92.90
58405;DHT22;44200;50.732;4.276;2022-07-22T17:04:22;23.90;92.80
58405;DHT22;44200;50.732;4.276;2022-07-22T17:06:48;24.10;92.00
58405;DHT22;44200;50.732;4.276;2022-07-22T17:09:15;24.00;92.50
58405;DHT22;44200;50.732;4.276;2022-07-22T17:11:40;23.50;92.30
58405;DHT22;44200;50.732;4.276;2022-07-22T17:14:06;23.60;92.60
58405;DHT22;44200;50.732;4.276;2022-07-22T17:16:32;23.80;92.90
58405;DHT22;44200;50.732;4.276;2022-07-22T17:18:57;23.70;93.90
58405;DHT22;44200;50.732;4.276;2022-07-22T17:21:23;23.50;95.40
58405;DHT22;44200;50.732;4.276;2022-07-22T17:23:49;23.20;94.60
58405;DHT22;44200;50.732;4.276;2022-07-22T17:26:14;22.60;96.50
58405;DHT22;44200;50.732;4.276;2022-07-22T17:28:40;22.70;98.80
58405;DHT22;44200;50.732;4.276;2022-07-22T17:31:07;22.90;99.30
58405;DHT22;44200;50.732;4.276;2022-07-22T17:33:33;23.30;98.90
58405;DHT22;44200;50.732;4.276;2022-07-22T17:35:59;23.60;99.10
58405;DHT22;44200;50.732;4.276;2022-07-22T17:38:25;23.40;99.40
58405;DHT22;44200;50.732;4.276;2022-07-22T17:40:51;22.90;99.90
58405;DHT22;44200;50.732;4.276;2022-07-22T17:43:16;23.10;99.90
58405;DHT22;44200;50.732;4.276;2022-07-22T17:45:42;23.20;99.90
58405;DHT22;44200;50.732;4.276;2022-07-22T17:48:08;23.20;99.90
58405;DHT22;44200;50.732;4.276;2022-07-22T17:50:36;23.20;99.90
58405;DHT22;44200;50.732;4.276;2022-07-22T17:53:05;23.10;99.90
58405;DHT22;44200;50.732;4.276;2022-07-22T17:55:31;23.00;99.90
58405;DHT22;44200;50.732;4.276;2022-07-22T17:57:57;22.90;99.90
58405;DHT22;44200;50.732;4.276;2022-07-22T18:00:23;22.80;99.90
58405;DHT22;44200;50.732;4.276;2022-07-22T18:02:49;22.70;99.90
58405;DHT22;44200;50.732;4.276;2022-07-22T18:05:15;22.70;99.90
58405;DHT22;44200;50.732;4.276;2022-07-22T18:07:40;22.40;99.90
58405;DHT22;44200;50.732;4.276;2022-07-22T18:10:06;22.00;99.90
58405;DHT22;44200;50.732;4.276;2022-07-22T18:12:33;21.70;99.90
58405;DHT22;44200;50.732;4.276;2022-07-22T18:14:59;21.90;99.90
58405;DHT22;44200;50.732;4.276;2022-07-22T18:17:26;22.20;99.90
58405;DHT22;44200;50.732;4.276;2022-07-22T18:19:52;22.30;99.90
58405;DHT22;44200;50.732;4.276;2022-07-22T18:22:21;22.10;99.90
58405;DHT22;44200;50.732;4.276;2022-07-22T18:24:46;22.00;99.90
58405;DHT22;44200;50.732;4.276;2022-07-22T18:34:45;22.20;99.90
58405;DHT22;44200;50.732;4.276;2022-07-22T18:47:32;22.20;99.90
58405;DHT22;44200;50.732;4.276;2022-07-22T18:53:28;21.60;99.90
58405;DHT22;44200;50.732;4.276;2022-07-22T18:56:26;21.40;99.90
58405;DHT22;44200;50.732;4.276;2022-07-22T18:59:33;20.80;99.90
58405;DHT22;44200;50.732;4.276;2022-07-22T19:06:02;20.90;99.90
58405;DHT22;44200;50.732;4.276;2022-07-22T19:12:35;21.50;99.90
58405;DHT22;44200;50.732;4.276;2022-07-22T19:29:44;21.50;99.90
58405;DHT22;44200;50.732;4.276;2022-07-22T19:36:19;21.50;99.90
58405;DHT22;44200;50.732;4.276;2022-07-22T20:13:19;21.00;99.90
58405;DHT22;44200;50.732;4.276;2022-07-22T20:16:22;20.90;99.90
58405;DHT22;44200;50.732;4.276;2022-07-22T20:19:23;20.60;99.90
58405;DHT22;44200;50.732;4.276;2022-07-22T20:25:36;20.40;99.90
58405;DHT22;44200;50.732;4.276;2022-07-22T20:28:34;20.70;99.90
58405;DHT22;44200;50.732;4.276;2022-07-22T20:38:48;20.60;99.90
58405;DHT22;44200;50.732;4.276;2022-07-22T20:52:00;20.20;99.90
58405;DHT22;44200;50.732;4.276;2022-07-22T20:55:12;20.10;99.90
58405;DHT22;44200;50.732;4.276;2022-07-22T21:09:08;19.70;99.90
58405;DHT22;44200;50.732;4.276;2022-07-22T21:15:43;19.50;99.90
58405;DHT22;44200;50.732;4.276;2022-07-22T21:18:16;19.50;99.90
58405;DHT22;44200;50.732;4.276;2022-07-22T21:24:29;19.30;99.90
58405;DHT22;44200;50.732;4.276;2022-07-22T21:34:31;19.20;99.90
58405;DHT22;44200;50.732;4.276;2022-07-22T21:37:06;19.30;99.90
58405;DHT22;44200;50.732;4.276;2022-07-22T21:39:35;19.30;99.90
58405;DHT22;44200;50.732;4.276;2022-07-22T21:42:06;19.30;99.90
58405;DHT22;44200;50.732;4.276;2022-07-22T21:44:49;19.10;99.90
58405;DHT22;44200;50.732;4.276;2022-07-22T21:47:41;19.20;99.90
58405;DHT22;44200;50.732;4.276;2022-07-22T21:50:07;19.30;99.90
58405;DHT22;44200;50.732;4.276;2022-07-22T21:52:33;19.20;99.90
58405;DHT22;44200;50.732;4.276;2022-07-22T21:54:59;19.30;99.90
58405;DHT22;44200;50.732;4.276;2022-07-22T21:57:25;19.40;99.90
58405;DHT22;44200;50.732;4.276;2022-07-22T21:59:53;19.30;99.90
58405;DHT22;44200;50.732;4.276;2022-07-22T22:02:19;19.30;99.90
58405;DHT22;44200;50.732;4.276;2022-07-22T22:04:44;19.40;99.90
58405;DHT22;44200;50.732;4.276;2022-07-22T22:07:13;19.30;99.90
58405;DHT22;44200;50.732;4.276;2022-07-22T22:09:41;19.20;99.90
58405;DHT22;44200;50.732;4.276;2022-07-22T22:12:07;19.10;99.90
58405;DHT22;44200;50.732;4.276;2022-07-22T22:14:54;19.30;99.90
58405;DHT22;44200;50.732;4.276;2022-07-22T22:17:21;19.30;99.90
58405;DHT22;44200;50.732;4.276;2022-07-22T22:19:46;19.10;99.90
58405;DHT22;44200;50.732;4.276;2022-07-22T22:22:12;19.10;99.90
58405;DHT22;44200;50.732;4.276;2022-07-22T22:24:37;19.10;99.90
58405;DHT22;44200;50.732;4.276;2022-07-22T22:27:03;18.90;99.90
58405;DHT22;44200;50.732;4.276;2022-07-22T22:29:29;18.90;99.90
58405;DHT22;44200;50.732;4.276;2022-07-22T22:31:55;18.90;99.90
58405;DHT22;44200;50.732;4.276;2022-07-22T22:34:20;18.90;99.90
58405;DHT22;44200;50.732;4.276;2022-07-22T22:36:46;19.10;99.90
58405;DHT22;44200;50.732;4.276;2022-07-22T22:39:11;19.10;99.90
58405;DHT22;44200;50.732;4.276;2022-07-22T22:41:37;18.90;99.90
58405;DHT22;44200;50.732;4.276;2022-07-22T22:44:05;18.80;99.90
58405;DHT22;44200;50.732;4.276;2022-07-22T22:46:31;18.80;99.90
58405;DHT22;44200;50.732;4.276;2022-07-22T22:48:56;18.90;99.90
58405;DHT22;44200;50.732;4.276;2022-07-22T22:51:22;19.00;99.90
58405;DHT22;44200;50.732;4.276;2022-07-22T22:53:48;19.00;99.90
58405;DHT22;44200;50.732;4.276;2022-07-22T22:56:14;19.00;99.90
58405;DHT22;44200;50.732;4.276;2022-07-22T22:58:39;19.00;99.90
58405;DHT22;44200;50.732;4.276;2022-07-22T23:01:05;18.70;99.90
58405;DHT22;44200;50.732;4.276;2022-07-22T23:03:32;18.60;99.90
58405;DHT22;44200;50.732;4.276;2022-07-22T23:05:58;18.40;99.90
58405;DHT22;44200;50.732;4.276;2022-07-22T23:08:23;18.40;99.90
58405;DHT22;44200;50.732;4.276;2022-07-22T23:10:49;18.40;99.90
58405;DHT22;44200;50.732;4.276;2022-07-22T23:13:15;18.50;99.90
58405;DHT22;44200;50.732;4.276;2022-07-22T23:15:43;18.50;99.90
58405;DHT22;44200;50.732;4.276;2022-07-22T23:18:09;18.20;99.90
58405;DHT22;44200;50.732;4.276;2022-07-22T23:20:34;18.20;99.90
58405;DHT22;44200;50.732;4.276;2022-07-22T23:23:17;18.20;99.90
58405;DHT22;44200;50.732;4.276;2022-07-22T23:25:44;18.30;99.90
58405;DHT22;44200;50.732;4.276;2022-07-22T23:28:10;18.30;99.90
58405;DHT22;44200;50.732;4.276;2022-07-22T23:30:36;18.30;99.90
58405;DHT22;44200;50.732;4.276;2022-07-22T23:33:01;18.20;99.90
58405;DHT22;44200;50.732;4.276;2022-07-22T23:35:27;18.10;99.90
58405;DHT22;44200;50.732;4.276;2022-07-22T23:38:02;18.20;99.90
58405;DHT22;44200;50.732;4.276;2022-07-22T23:40:29;18.30;99.90
58405;DHT22;44200;50.732;4.276;2022-07-22T23:42:55;18.30;99.90
58405;DHT22;44200;50.732;4.276;2022-07-22T23:45:20;18.30;99.90
58405;DHT22;44200;50.732;4.276;2022-07-22T23:47:46;18.10;99.90
58405;DHT22;44200;50.732;4.276;2022-07-22T23:50:12;18.20;99.90
58405;DHT22;44200;50.732;4.276;2022-07-22T23:52:37;18.30;99.90
58405;DHT22;44200;50.732;4.276;2022-07-22T23:55:03;18.20;99.90
58405;DHT22;44200;50.732;4.276;2022-07-22T23:57:29;18.00;99.90
58405;DHT22;44200;50.732;4.276;2022-07-22T23:59:58;18.20;99.90
